Time;durP1;ratioP1;P1;durP2;ratioP2;P2;SDS_P1;SDS_P2;PMS_P1;PMS_P2;Temp;Humidity;BMP_temperature;BMP_pressure;BME280_temperature;BME280_humidity;BME280_pressure;Samples;Min_cycle;Max_cycle;Signal;HPM_P1;HPM_P2
2022/05/28 00:00:17;;;;;;;6.55;3.80;;;;;;;7.59;81.42;97427.47;4994886;28;20181;-66
2022/05/28 00:02:44;;;;;;;6.22;3.40;;;;;;;7.62;81.27;97426.94;5000553;28;20054;-65
2022/05/28 00:05:10;;;;;;;7.05;3.88;;;;;;;7.66;81.02;97433.25;5014323;28;20045;-65
2022/05/28 00:07:35;;;;;;;6.22;3.67;;;;;;;7.67;81.36;97426.91;5014033;28;20038;-65
2022/05/28 00:10:01;;;;;;;7.25;4.30;;;;;;;7.68;80.81;97417.19;5013083;28;20404;-65
2022/05/28 00:12:30;;;;;;;5.00;3.50;;;;;;;7.67;81.23;97421.63;5014231;28;20050;-65
2022/05/28 00:14:57;;;;;;;7.47;4.18;;;;;;;7.68;80.81;97417.19;5014189;28;20045;-65
2022/05/28 00:17:23;;;;;;;5.88;3.58;;;;;;;7.68;80.64;97414.53;5014368;28;20045;-65
2022/05/28 00:19:49;;;;;;;9.27;4.20;;;;;;;7.72;80.20;97410.31;5012836;28;20046;-65
2022/05/28 00:22:15;;;;;;;5.00;3.45;;;;;;;7.80;79.78;97414.25;5013813;28;20060;-65
2022/05/28 00:24:40;;;;;;;7.30;3.50;;;;;;;7.84;79.72;97407.38;5014066;28;20034;-65
2022/05/28 00:27:06;;;;;;;5.30;3.10;;;;;;;7.88;79.49;97409.22;5013767;28;20046;-65
2022/05/28 00:29:32;;;;;;;4.63;3.30;;;;;;;7.88;79.49;97406.59;5013843;28;20050;-65
2022/05/28 00:31:58;;;;;;;7.07;3.92;;;;;;;7.90;79.98;97404.44;5013589;28;20044;-65
2022/05/28 00:34:23;;;;;;;7.88;4.38;;;;;;;7.87;79.84;97399.72;4996280;28;20046;-65
2022/05/28 00:36:49;;;;;;;10.68;5.80;;;;;;;7.86;79.57;97400.78;5013603;28;20124;-65
2022/05/28 00:39:15;;;;;;;8.18;5.35;;;;;;;7.86;80.10;97402.63;5013723;28;20491;-64
2022/05/28 00:41:40;;;;;;;10.15;4.70;;;;;;;7.83;79.83;97401.31;5012588;28;20034;-65
2022/05/28 00:44:06;;;;;;;9.13;5.45;;;;;;;7.81;79.96;97395.50;5013753;28;20495;-65
2022/05/28 00:46:33;;;;;;;8.20;5.07;;;;;;;7.77;80.31;97394.47;5013658;28;20038;-65
2022/05/28 00:49:01;;;;;;;8.10;5.57;;;;;;;7.70;80.83;97391.31;5012561;28;20046;-65
2022/05/28 00:51:34;;;;;;;13.30;6.20;;;;;;;7.67;80.75;97390.00;5011942;28;20496;-65
2022/05/28 00:54:01;;;;;;;8.73;6.07;;;;;;;7.65;80.64;97386.06;5009269;28;20246;-65
2022/05/28 00:56:28;;;;;;;9.00;5.97;;;;;;;7.60;81.11;97378.94;5011975;28;20038;-66
2022/05/28 00:58:54;;;;;;;10.98;6.22;;;;;;;7.57;81.47;97382.13;5013402;28;20041;-65
2022/05/28 01:01:22;;;;;;;9.77;5.43;;;;;;;7.51;81.45;97383.19;5013292;28;20077;-66
2022/05/28 01:03:56;;;;;;;8.20;6.07;;;;;;;7.47;81.83;97382.13;4995726;28;20157;-65
2022/05/28 01:06:33;;;;;;;8.07;5.32;;;;;;;7.44;82.20;97390.56;4996508;28;20042;-65
2022/05/28 01:09:08;;;;;;;10.27;5.18;;;;;;;7.43;81.94;97392.41;4996108;28;20173;-65
2022/05/28 01:11:47;;;;;;;11.88;5.53;;;;;;;7.50;82.35;97387.69;5013280;28;20049;-65
2022/05/28 01:14:29;;;;;;;12.52;5.38;;;;;;;7.63;81.58;97385.53;4995120;28;20042;-65
2022/05/28 01:16:58;;;;;;;10.35;6.00;;;;;;;7.74;80.89;97368.63;5028321;28;20125;-65
2022/05/28 01:19:38;;;;;;;9.25;5.18;;;;;;;7.93;80.43;97371.47;4995570;28;20050;-65
2022/05/28 01:22:07;;;;;;;6.53;4.65;;;;;;;8.06;79.80;97370.91;4982071;28;20084;-65
2022/05/28 01:24:45;;;;;;;7.22;4.88;;;;;;;8.26;78.79;97370.00;4995050;28;20495;-65
2022/05/28 01:27:38;;;;;;;8.45;4.72;;;;;;;8.50;77.99;97364.94;5013094;28;20046;-66
2022/05/28 01:30:09;;;;;;;11.88;5.15;;;;;;;8.80;76.58;97358.66;5012746;28;20052;-65
2022/05/28 01:32:35;;;;;;;7.93;4.38;;;;;;;9.13;75.79;97360.78;4978811;28;20045;-65
2022/05/28 01:35:05;;;;;;;8.50;4.68;;;;;;;9.45;74.13;97347.00;4995051;28;20428;-66
2022/05/28 01:37:31;;;;;;;8.60;4.25;;;;;;;9.82;72.93;97345.56;4994850;28;20037;-65
2022/05/28 01:39:58;;;;;;;9.20;4.15;;;;;;;10.24;71.15;97348.22;5027702;28;20503;-65
2022/05/28 01:42:25;;;;;;;15.77;8.07;;;;;;;10.67;71.70;97350.06;5011255;28;20056;-65
2022/05/28 01:44:52;;;;;;;8.60;5.22;;;;;;;11.13;69.68;97349.34;5027632;28;20471;-65
2022/05/28 01:47:18;;;;;;;5.80;3.63;;;;;;;11.48;67.75;97349.84;5012778;28;20108;-64
2022/05/28 01:49:45;;;;;;;7.72;4.57;;;;;;;11.67;65.24;97350.53;4994881;28;20046;-65
2022/05/28 01:52:11;;;;;;;8.98;4.50;;;;;;;11.95;65.22;97361.19;5012198;28;20561;-65
2022/05/28 01:54:43;;;;;;;5.25;3.60;;;;;;;12.40;63.53;97354.16;4994895;28;20048;-65
2022/05/28 01:57:10;;;;;;;9.32;4.50;;;;;;;12.89;61.43;97354.41;4995254;28;20136;-66
2022/05/28 01:59:36;;;;;;;7.75;4.07;;;;;;;13.36;61.13;97355.69;5012249;28;20116;-66
2022/05/28 02:02:07;;;;;;;13.98;5.20;;;;;;;13.85;58.58;97359.19;5027038;28;20484;-65
2022/05/28 02:04:36;;;;;;;7.47;3.92;;;;;;;14.34;57.35;97348.50;5012194;28;20570;-65
2022/05/28 02:07:04;;;;;;;8.02;4.22;;;;;;;13.98;57.54;97354.06;5011778;28;20038;-65
2022/05/28 02:09:34;;;;;;;7.35;4.32;;;;;;;14.04;57.43;97345.63;5012314;28;20472;-65
2022/05/28 02:12:18;;;;;;;6.10;3.97;;;;;;;14.30;57.69;97344.91;5010663;28;20091;-65
2022/05/28 02:15:17;;;;;;;12.73;8.15;;;;;;;15.01;55.82;97341.19;5012027;28;20045;-65
2022/05/28 02:17:50;;;;;;;6.90;4.95;;;;;;;15.48;54.23;97333.22;5012348;28;20117;-65
2022/05/28 02:20:36;;;;;;;8.43;4.35;;;;;;;16.03;52.19;97335.84;5011809;28;20510;-65
2022/05/28 02:23:15;;;;;;;6.57;4.93;;;;;;;16.12;51.55;97333.13;5010763;28;20045;-65
2022/05/28 02:25:53;;;;;;;6.05;3.70;;;;;;;16.03;52.07;97341.19;5011386;28;20069;-66
2022/05/28 02:28:23;;;;;;;7.88;4.57;;;;;;;15.84;52.01;97330.91;5010545;28;20038;-65
2022/05/28 02:31:02;;;;;;;7.63;4.40;;;;;;;15.84;51.84;97335.47;5010522;28;20048;-65
2022/05/28 02:33:31;;;;;;;8.93;4.07;;;;;;;15.53;52.97;97333.84;5010650;28;20092;-65
2022/05/28 02:35:57;;;;;;;8.40;4.40;;;;;;;15.00;54.23;97329.72;5011528;28;20069;-66
2022/05/28 02:38:22;;;;;;;7.68;4.30;;;;;;;14.46;55.65;97331.91;5012078;28;20045;-65
2022/05/28 02:40:48;;;;;;;8.88;4.63;;;;;;;14.03;56.53;97330.75;5011954;28;20505;-65
2022/05/28 02:43:14;;;;;;;6.88;4.30;;;;;;;13.63;57.70;97325.44;5011532;28;20081;-66
2022/05/28 02:45:40;;;;;;;7.75;5.10;;;;;;;13.37;58.16;97332.50;5011393;28;20042;-65
2022/05/28 02:48:06;;;;;;;7.05;4.40;;;;;;;13.42;59.01;97327.06;4994005;28;20136;-65
2022/05/28 02:50:31;;;;;;;5.78;4.57;;;;;;;13.74;58.15;97331.28;5011107;28;20132;-65
2022/05/28 02:52:57;;;;;;;6.97;5.00;;;;;;;13.43;58.39;97328.63;5011785;28;20042;-65
2022/05/28 02:55:23;;;;;;;7.18;5.07;;;;;;;13.17;59.42;97331.13;5011673;28;20042;-65
2022/05/28 02:57:49;;;;;;;7.07;4.80;;;;;;;13.66;58.29;97332.03;5011815;28;20042;-65
2022/05/28 03:00:16;;;;;;;6.90;4.50;;;;;;;14.41;55.75;97326.72;5007949;28;20069;-66
2022/05/28 03:02:42;;;;;;;6.03;4.32;;;;;;;15.13;54.45;97330.66;5011456;28;20065;-65
2022/05/28 03:05:09;;;;;;;8.23;5.13;;;;;;;15.58;52.66;97324.84;5011419;28;20141;-64
2022/05/28 03:07:34;;;;;;;5.63;4.50;;;;;;;16.18;51.01;97325.69;4993825;28;20045;-65
2022/05/28 03:10:00;;;;;;;7.15;5.07;;;;;;;16.51;50.31;97320.44;5011629;28;20099;-65
2022/05/28 03:12:25;;;;;;;12.73;5.00;;;;;;;16.16;50.29;97318.00;4993571;28;20414;-65
2022/05/28 03:14:51;;;;;;;5.85;4.72;;;;;;;15.60;52.08;97317.31;5011655;28;20038;-66
2022/05/28 03:17:17;;;;;;;9.43;6.38;;;;;;;15.09;53.53;97319.03;5011330;28;20061;-65
2022/05/28 03:19:42;;;;;;;9.32;6.85;;;;;;;14.77;54.97;97315.78;5011606;28;20042;-65
2022/05/28 03:22:08;;;;;;;13.68;7.03;;;;;;;14.54;56.12;97318.59;5010668;28;20048;-66
2022/05/28 03:24:34;;;;;;;11.68;6.43;;;;;;;14.40;56.68;97311.81;5026175;28;20415;-65
2022/05/28 03:26:59;;;;;;;9.60;6.38;;;;;;;14.29;57.14;97314.00;5011402;28;20074;-65
2022/05/28 03:29:25;;;;;;;9.60;6.43;;;;;;;14.17;57.41;97301.28;5011235;28;20096;-65
2022/05/28 03:31:51;;;;;;;11.40;6.80;;;;;;;14.03;57.51;97301.44;5011215;28;20045;-65
2022/05/28 03:34:17;;;;;;;11.75;6.75;;;;;;;13.83;58.51;97302.78;5026647;28;20052;-66
2022/05/28 03:36:42;;;;;;;12.48;6.50;;;;;;;13.75;58.67;97300.09;5014074;28;20060;-65
2022/05/28 03:39:08;;;;;;;10.55;5.97;;;;;;;13.81;58.61;97298.88;5014286;28;20525;-64
2022/05/28 03:41:34;;;;;;;9.25;5.97;;;;;;;13.84;58.50;97296.38;5014761;28;20084;-65
2022/05/28 03:43:59;;;;;;;10.40;6.60;;;;;;;13.78;59.38;97288.84;5014693;28;20046;-66
2022/05/28 03:46:28;;;;;;;9.75;6.20;;;;;;;13.72;59.13;97282.88;4996847;28;20099;-65
2022/05/28 03:48:58;;;;;;;11.23;6.60;;;;;;;13.68;59.36;97279.25;5014649;28;20107;-66
2022/05/28 03:51:24;;;;;;;8.80;5.53;;;;;;;13.62;59.34;97286.59;5014646;28;20037;-65
2022/05/28 03:53:50;;;;;;;7.40;6.13;;;;;;;13.84;58.81;97287.59;4996685;28;20396;-65
2022/05/28 03:56:15;;;;;;;12.73;5.22;;;;;;;14.62;57.26;97303.72;5013296;28;20048;-65
2022/05/28 03:58:41;;;;;;;14.80;6.07;;;;;;;15.34;54.72;97314.72;5014477;28;20042;-64
2022/05/28 04:01:07;;;;;;;10.32;5.57;;;;;;;15.63;54.10;97300.66;5014314;28;20400;-65
2022/05/28 04:03:34;;;;;;;12.32;5.35;;;;;;;15.94;52.66;97297.69;5014315;28;20543;-65
2022/05/28 04:06:01;;;;;;;8.30;4.43;;;;;;;16.02;52.06;97304.09;5014267;28;20048;-65
2022/05/28 04:08:27;;;;;;;8.65;4.68;;;;;;;16.20;51.49;97304.78;5004294;28;20411;-65
2022/05/28 04:10:52;;;;;;;10.93;4.90;;;;;;;16.32;51.56;97296.81;5014290;28;20053;-65
2022/05/28 04:13:18;;;;;;;5.47;4.55;;;;;;;16.60;50.68;97299.00;5014219;28;20052;-65
2022/05/28 04:15:45;;;;;;;9.35;4.50;;;;;;;16.92;50.32;97300.16;5014320;28;20046;-66
2022/05/28 04:18:11;;;;;;;7.82;4.20;;;;;;;17.19;49.41;97294.19;5028940;28;20042;-66
2022/05/28 04:20:37;;;;;;;8.20;4.18;;;;;;;17.60;48.40;97292.47;5014006;28;20534;-65
2022/05/28 04:23:03;;;;;;;6.05;4.20;;;;;;;18.08;46.81;97292.81;5012710;28;20038;-65
2022/05/28 04:25:28;;;;;;;9.55;5.68;;;;;;;18.46;45.45;97294.31;5014087;28;20041;-66
2022/05/28 04:27:54;;;;;;;10.15;5.07;;;;;;;18.63;45.51;97288.66;5013746;28;20041;-66
2022/05/28 04:30:19;;;;;;;8.73;4.15;;;;;;;18.69;45.10;97281.16;5013888;28;20107;-66
2022/05/28 04:32:45;;;;;;;8.25;4.78;;;;;;;18.16;46.36;97287.31;5013979;28;20152;-66
2022/05/28 04:35:11;;;;;;;5.72;4.28;;;;;;;17.63;47.27;97282.97;5013798;28;20044;-64
2022/05/28 04:37:37;;;;;;;8.40;4.38;;;;;;;17.45;47.88;97287.78;5013940;28;20041;-66
2022/05/28 04:40:04;;;;;;;7.05;4.57;;;;;;;17.69;47.58;97278.97;5013018;28;20038;-67
2022/05/28 04:42:29;;;;;;;6.53;4.55;;;;;;;18.22;46.63;97273.69;5008093;28;20077;-65
2022/05/28 04:44:56;;;;;;;9.88;5.03;;;;;;;18.39;46.25;97276.13;4995835;28;20077;-65
2022/05/28 04:47:22;;;;;;;14.77;4.95;;;;;;;18.13;46.29;97276.50;5013288;28;20461;-66
2022/05/28 04:49:48;;;;;;;8.68;4.72;;;;;;;17.67;47.41;97281.97;4994675;28;20522;-65
2022/05/28 04:52:14;;;;;;;6.43;4.35;;;;;;;17.40;48.07;97288.75;4995753;28;20073;-66
2022/05/28 04:54:39;;;;;;;7.35;4.95;;;;;;;17.23;48.96;97279.03;4995513;28;20054;-66
2022/05/28 04:57:05;;;;;;;12.52;4.95;;;;;;;17.14;48.88;97280.22;5012625;28;20042;-66
2022/05/28 04:59:31;;;;;;;7.50;5.18;;;;;;;17.08;49.39;97278.88;5012342;28;20046;-65
2022/05/28 05:01:57;;;;;;;9.20;5.10;;;;;;;16.96;49.31;97285.00;4986654;28;20038;-65
2022/05/28 05:04:23;;;;;;;10.45;4.80;;;;;;;16.77;50.10;97278.25;4993574;28;20050;-64
2022/05/28 05:06:49;;;;;;;10.50;4.82;;;;;;;16.67;51.01;97283.97;5023090;28;20168;-65
2022/05/28 05:09:14;;;;;;;9.55;4.75;;;;;;;16.46;50.64;97283.19;5013362;28;20058;-66
2022/05/28 05:11:40;;;;;;;10.98;5.22;;;;;;;16.21;51.04;97276.94;5020846;28;20486;-66
2022/05/28 05:14:06;;;;;;;12.38;5.03;;;;;;;15.99;52.01;97280.69;5033007;28;20634;-66
2022/05/28 05:16:32;;;;;;;11.48;4.70;;;;;;;16.10;52.53;97265.84;5014941;28;20037;-66
2022/05/28 05:18:58;;;;;;;9.73;4.55;;;;;;;16.41;51.27;97270.78;5011611;28;20045;-64
2022/05/28 05:21:23;;;;;;;6.28;4.15;;;;;;;16.48;51.43;97272.97;4995190;28;20451;-66
2022/05/28 05:23:50;;;;;;;8.43;4.70;;;;;;;16.27;51.23;97264.97;5011826;28;20053;-66
2022/05/28 05:26:18;;;;;;;7.85;5.47;;;;;;;15.98;52.23;97266.56;4978095;28;20549;-67
2022/05/28 05:28:44;;;;;;;8.98;5.10;;;;;;;15.78;52.20;97275.31;4992035;28;20050;-67
2022/05/28 05:31:11;;;;;;;17.35;5.30;;;;;;;15.74;52.59;97277.06;5011426;28;20045;-67
2022/05/28 05:33:37;;;;;;;12.40;5.82;;;;;;;15.71;52.17;97273.16;5013169;28;20053;-66
2022/05/28 05:36:03;;;;;;;8.30;4.10;;;;;;;15.76;52.04;97264.16;4995081;28;20092;-67
2022/05/28 05:38:29;;;;;;;7.97;4.28;;;;;;;15.66;52.61;97267.97;5011182;28;20073;-68
2022/05/28 05:40:54;;;;;;;9.82;4.65;;;;;;;15.63;52.78;97268.59;5027811;28;20077;-68
2022/05/28 05:43:20;;;;;;;9.38;4.65;;;;;;;15.56;53.00;97268.31;5012361;28;20121;-67
2022/05/28 05:45:54;;;;;;;8.15;4.50;;;;;;;15.38;52.69;97268.41;4992842;28;20161;-67
2022/05/28 05:48:20;;;;;;;7.82;4.55;;;;;;;15.22;53.06;97267.34;5012733;28;20518;-68
2022/05/28 05:50:47;;;;;;;8.40;4.45;;;;;;;15.13;53.54;97267.38;5011148;28;20056;-69
2022/05/28 05:53:13;;;;;;;7.65;4.63;;;;;;;15.02;53.68;97274.16;5009066;28;20042;-67
2022/05/28 05:55:38;;;;;;;7.38;4.40;;;;;;;15.04;54.18;97263.97;5010828;28;20072;-67
2022/05/28 05:58:04;;;;;;;10.70;4.43;;;;;;;15.33;55.02;97273.13;5011160;28;20041;-67
2022/05/28 06:00:30;;;;;;;11.45;4.13;;;;;;;15.44;54.32;97269.78;4994784;28;20056;-67
2022/05/28 06:02:56;;;;;;;9.57;4.13;;;;;;;15.64;53.46;97275.50;5012183;28;20416;-66
2022/05/28 06:05:22;;;;;;;9.75;4.53;;;;;;;15.90;53.80;97286.09;5012377;28;20462;-67
2022/05/28 06:07:48;;;;;;;7.38;4.45;;;;;;;16.17;52.75;97284.03;5012325;28;20065;-66
2022/05/28 06:10:13;;;;;;;5.38;3.95;;;;;;;16.24;52.14;97287.78;5011027;28;20044;-67
2022/05/28 06:12:39;;;;;;;7.63;4.18;;;;;;;16.11;52.13;97291.47;5011557;28;20072;-67
2022/05/28 06:15:06;;;;;;;6.82;3.72;;;;;;;16.06;52.44;97295.13;5001972;28;20493;-66
2022/05/28 06:17:35;;;;;;;8.35;3.72;;;;;;;16.03;52.54;97295.78;5012068;28;20044;-67
2022/05/28 06:20:03;;;;;;;3.92;3.20;;;;;;;16.07;52.24;97288.66;5011987;28;20470;-67
2022/05/28 06:22:29;;;;;;;6.43;3.28;;;;;;;15.99;52.75;97292.16;5011509;28;20038;-68
2022/05/28 06:24:55;;;;;;;9.90;3.55;;;;;;;15.86;52.86;97296.66;5011435;28;20096;-66
2022/05/28 06:27:20;;;;;;;5.10;3.00;;;;;;;15.75;53.04;97292.00;5011955;28;20104;-66
2022/05/28 06:29:46;;;;;;;5.78;3.13;;;;;;;15.87;53.12;97302.75;5011717;28;20472;-66
2022/05/28 06:32:12;;;;;;;5.25;2.85;;;;;;;16.01;52.78;97294.53;5011730;28;20049;-67
2022/05/28 06:34:37;;;;;;;5.88;3.50;;;;;;;16.13;52.44;97292.72;5011629;28;20046;-68
2022/05/28 06:37:07;;;;;;;8.00;3.45;;;;;;;16.08;52.01;97289.44;5011041;28;20095;-66
2022/05/28 06:39:33;;;;;;;7.85;3.30;;;;;;;16.02;52.65;97298.75;5011941;28;20042;-66
2022/05/28 06:41:59;;;;;;;5.30;3.53;;;;;;;16.13;52.99;97292.72;5010577;28;20542;-65
2022/05/28 06:44:26;;;;;;;7.38;3.35;;;;;;;16.29;52.41;97289.44;5011659;28;20053;-66
2022/05/28 06:46:52;;;;;;;6.38;3.40;;;;;;;16.49;52.07;97291.34;5010347;28;20589;-70
2022/05/28 06:49:18;;;;;;;6.20;3.17;;;;;;;16.63;51.48;97290.31;4998856;28;20133;-66
2022/05/28 06:51:44;;;;;;;9.93;3.20;;;;;;;16.72;51.05;97293.69;5026759;28;20038;-66
2022/05/28 06:54:09;;;;;;;8.07;2.97;;;;;;;16.84;50.40;97290.31;5011273;28;20458;-66
2022/05/28 06:56:35;;;;;;;7.38;3.38;;;;;;;16.74;50.69;97294.94;5011173;28;20045;-67
2022/05/28 06:59:01;;;;;;;8.13;3.17;;;;;;;16.70;51.00;97304.69;5011091;28;20056;-68
2022/05/28 07:01:26;;;;;;;6.15;2.92;;;;;;;16.42;51.97;97296.44;5010795;28;20045;-64
2022/05/28 07:03:52;;;;;;;6.63;3.20;;;;;;;16.31;51.75;97292.59;5010891;28;20066;-65
2022/05/28 07:06:18;;;;;;;4.82;3.17;;;;;;;16.48;51.98;97295.13;5001421;28;20037;-67
2022/05/28 07:08:43;;;;;;;4.70;2.92;;;;;;;16.44;51.85;97296.91;5002330;28;20038;-67
2022/05/28 07:11:10;;;;;;;7.30;3.58;;;;;;;16.76;50.93;97302.63;5011208;28;20038;-68
2022/05/28 07:13:37;;;;;;;5.00;2.80;;;;;;;16.61;51.20;97300.53;4974981;28;20054;-68
2022/05/28 07:16:05;;;;;;;4.28;2.80;;;;;;;16.71;50.99;97311.63;5014223;28;20072;-67
2022/05/28 07:18:35;;;;;;;6.22;3.03;;;;;;;16.70;51.15;97317.31;5014758;28;20515;-67
2022/05/28 07:21:01;;;;;;;6.35;3.22;;;;;;;16.70;50.60;97310.06;5013729;28;20041;-67
2022/05/28 07:23:29;;;;;;;7.60;3.28;;;;;;;16.72;51.43;97321.22;4998499;28;20045;-66
2022/05/28 07:26:07;;;;;;;6.68;3.42;;;;;;;16.86;50.94;97318.31;5014704;28;20046;-66
2022/05/28 07:28:36;;;;;;;4.70;3.13;;;;;;;16.85;50.08;97322.06;5013779;28;20112;-64
2022/05/28 07:31:10;;;;;;;4.65;3.13;;;;;;;16.65;51.14;97322.84;5014735;28;20038;-65
2022/05/28 07:33:38;;;;;;;5.93;3.30;;;;;;;16.50;51.27;97327.69;4981154;28;20529;-65
2022/05/28 07:36:06;;;;;;;7.90;3.20;;;;;;;16.34;51.41;97324.03;5014990;28;20096;-68
2022/05/28 07:38:33;;;;;;;6.43;3.40;;;;;;;16.32;52.59;97323.56;4997363;28;20234;-66
2022/05/28 07:41:07;;;;;;;7.07;3.47;;;;;;;16.33;51.93;97331.25;5014350;28;20038;-66
2022/05/28 07:43:35;;;;;;;9.60;4.00;;;;;;;16.53;51.57;97335.06;4997447;28;20415;-66
2022/05/28 07:46:02;;;;;;;6.55;3.25;;;;;;;16.34;51.85;97326.69;4997420;28;20046;-64
2022/05/28 07:48:28;;;;;;;7.55;3.50;;;;;;;16.26;51.63;97330.19;5014296;28;20675;-69
2022/05/28 07:50:53;;;;;;;4.43;2.92;;;;;;;16.18;50.89;97339.84;5014514;28;20100;-66
2022/05/28 07:53:19;;;;;;;6.15;2.97;;;;;;;15.99;51.84;97336.81;5014794;28;20042;-66
2022/05/28 07:55:45;;;;;;;6.10;3.70;;;;;;;15.90;51.79;97347.53;5014586;28;20065;-65
2022/05/28 07:58:16;;;;;;;9.23;3.58;;;;;;;15.97;52.35;97339.81;5014299;28;20129;-65
2022/05/28 08:00:46;;;;;;;7.95;3.25;;;;;;;15.89;52.09;97354.00;5014143;28;20081;-65
2022/05/28 08:03:12;;;;;;;6.78;3.03;;;;;;;16.18;51.20;97355.09;5013211;28;20061;-65
2022/05/28 08:05:40;;;;;;;6.70;3.10;;;;;;;16.47;50.51;97352.41;4996758;28;20527;-65
2022/05/28 08:08:07;;;;;;;9.00;3.40;;;;;;;16.81;50.05;97353.28;5013103;28;20053;-66
2022/05/28 08:10:33;;;;;;;4.35;3.15;;;;;;;17.21;48.29;97355.44;5014226;28;20050;-66
2022/05/28 08:13:03;;;;;;;4.53;3.00;;;;;;;17.22;48.07;97352.44;5013493;28;20054;-65
2022/05/28 08:15:30;;;;;;;7.68;3.00;;;;;;;17.12;48.32;97358.22;5014306;28;20049;-63
2022/05/28 08:17:57;;;;;;;5.80;3.17;;;;;;;16.81;49.33;97358.63;4964214;28;20042;-66
2022/05/28 08:23:10;;;;;;;7.88;5.00;;;;;;;16.39;51.49;97365.84;5014205;28;20050;-65
2022/05/28 08:25:36;;;;;;;7.97;4.07;;;;;;;16.22;51.26;97362.16;5012954;28;20042;-66
2022/05/28 08:28:02;;;;;;;6.93;3.42;;;;;;;16.19;51.75;97360.13;5012781;28;20096;-66
2022/05/28 08:30:29;;;;;;;12.23;3.92;;;;;;;16.20;51.28;97364.34;5014029;28;20045;-65
2022/05/28 08:32:54;;;;;;;7.57;3.30;;;;;;;16.31;51.46;97375.47;5014059;28;20046;-66
2022/05/28 08:35:21;;;;;;;7.72;3.35;;;;;;;16.32;51.33;97377.84;5014071;28;20053;-65
2022/05/28 08:37:47;;;;;;;7.25;3.30;;;;;;;16.58;51.03;97374.97;5012769;28;20064;-67
2022/05/28 08:40:14;;;;;;;7.40;3.45;;;;;;;16.57;51.20;97367.28;5014054;28;20495;-65
2022/05/28 08:42:39;;;;;;;5.25;3.38;;;;;;;16.71;50.49;97375.84;5029011;28;20042;-65
2022/05/28 08:45:06;;;;;;;6.97;3.25;;;;;;;16.64;50.30;97374.78;5013762;28;20137;-66
2022/05/28 08:47:35;;;;;;;6.85;2.85;;;;;;;16.41;51.13;97393.00;5028606;28;20044;-64
2022/05/28 08:50:01;;;;;;;3.43;3.03;;;;;;;16.24;51.31;97383.22;5013771;28;20053;-66
2022/05/28 08:52:41;;;;;;;5.65;3.30;;;;;;;16.02;51.82;97389.59;5012016;28;20080;-65
2022/05/28 08:55:11;;;;;;;6.03;3.35;;;;;;;15.74;53.01;97395.38;5028728;28;20050;-64
2022/05/28 08:57:46;;;;;;;6.57;3.35;;;;;;;15.66;53.74;97410.28;5013764;28;20042;-66
2022/05/28 09:00:18;;;;;;;10.90;4.20;;;;;;;15.57;53.92;97409.53;5028450;28;20058;-65
2022/05/28 09:02:54;;;;;;;8.07;3.67;;;;;;;15.69;53.67;97406.22;5013119;28;20061;-65
2022/05/28 09:05:25;;;;;;;8.07;3.63;;;;;;;15.81;53.64;97408.25;5028853;28;20120;-65
2022/05/28 09:07:52;;;;;;;9.52;3.97;;;;;;;15.89;52.71;97410.09;5012075;28;20387;-66
2022/05/28 09:10:18;;;;;;;11.05;3.47;;;;;;;16.05;52.48;97411.13;5013210;28;20400;-66
2022/05/28 09:12:47;;;;;;;8.93;4.10;;;;;;;16.25;52.03;97416.88;5013388;28;20050;-65
2022/05/28 09:15:13;;;;;;;13.73;7.13;;;;;;;16.35;52.19;97414.63;5013186;28;20054;-65
2022/05/28 09:17:42;;;;;;;6.35;3.60;;;;;;;16.61;51.36;97413.66;5013290;28;20038;-65
2022/05/28 09:20:10;;;;;;;11.18;4.20;;;;;;;16.83;50.90;97419.84;5028480;28;20065;-65
2022/05/28 09:22:36;;;;;;;6.53;3.67;;;;;;;16.94;50.79;97421.00;5013258;28;20454;-67
2022/05/28 09:25:03;;;;;;;3.97;3.50;;;;;;;16.90;50.46;97422.78;5013170;28;20049;-66
2022/05/28 09:27:57;;;;;;;10.10;3.50;;;;;;;17.01;49.98;97418.59;5011611;28;20084;-65
2022/05/28 09:30:25;;;;;;;5.88;3.10;;;;;;;17.05;48.88;97414.16;5012894;28;20046;-65
2022/05/28 09:33:13;;;;;;;3.97;2.90;;;;;;;17.13;48.97;97413.31;5011545;28;20056;-66
2022/05/28 09:35:48;;;;;;;5.70;2.78;;;;;;;17.34;47.79;97415.19;5011515;28;20038;-66
2022/05/28 09:38:22;;;;;;;12.18;2.95;;;;;;;17.37;48.24;97414.50;5013063;28;20049;-64
2022/05/28 09:40:51;;;;;;;8.52;3.00;;;;;;;17.38;47.71;97426.78;5012630;28;20057;-65
2022/05/28 09:43:49;;;;;;;3.90;2.42;;;;;;;17.58;46.67;97409.88;4995229;28;20096;-65
2022/05/28 09:46:29;;;;;;;4.68;2.40;;;;;;;17.69;46.01;97420.97;5011377;28;20042;-65
2022/05/28 09:49:05;;;;;;;;;;;;;;;17.54;44.56;97429.66;5013127;28;20042;-66
2022/05/28 09:51:33;;;;;;;8.98;2.75;;;;;;;17.54;44.73;97424.28;5012528;28;20019;-66
2022/05/28 09:54:17;;;;;;;14.65;2.80;;;;;;;17.76;44.86;97434.59;5010994;28;20415;-65
2022/05/28 09:57:09;;;;;;;4.55;2.97;;;;;;;18.00;45.24;97436.59;5012609;28;20033;-66
2022/05/28 09:59:44;;;;;;;4.85;2.42;;;;;;;17.99;44.72;97437.69;5011213;28;20042;-66
2022/05/28 10:02:26;;;;;;;6.80;2.53;;;;;;;17.79;44.93;97441.22;5012157;28;20495;-64
2022/05/28 10:05:03;;;;;;;7.50;2.70;;;;;;;17.52;45.93;97451.38;5012524;28;20046;-66
2022/05/28 10:07:38;;;;;;;7.90;2.67;;;;;;;17.64;46.40;97454.09;5011243;28;20042;-65
2022/05/28 10:10:24;;;;;;;3.70;2.30;;;;;;;17.63;46.97;97459.81;5012080;28;20050;-67
2022/05/28 10:12:50;;;;;;;6.68;2.92;;;;;;;17.91;46.00;97455.44;5010854;28;20042;-65
2022/05/28 10:15:20;;;;;;;5.60;3.03;;;;;;;17.88;46.16;97472.19;5012000;28;20053;-65
2022/05/28 10:17:56;;;;;;;6.65;2.75;;;;;;;17.97;45.82;97472.09;5027358;28;20104;-65
2022/05/28 10:20:22;;;;;;;5.72;2.85;;;;;;;18.05;45.69;97481.94;5011119;28;20052;-65
2022/05/28 10:22:49;;;;;;;4.05;2.67;;;;;;;18.05;45.23;97479.25;5012187;28;20042;-66
2022/05/28 10:25:30;;;;;;;6.10;2.53;;;;;;;18.07;45.60;97481.59;5027338;28;20399;-66
2022/05/28 10:27:56;;;;;;;3.38;2.38;;;;;;;18.13;45.62;97477.59;5012259;28;20045;-66
2022/05/28 10:30:40;;;;;;;3.83;2.30;;;;;;;18.19;44.47;97475.47;5011792;28;20059;-65
2022/05/28 10:33:19;;;;;;;2.97;2.30;;;;;;;18.21;45.17;97484.75;5012107;28;20072;-65
2022/05/28 10:35:45;;;;;;;3.20;2.05;;;;;;;17.84;45.51;97479.31;5027293;28;20038;-65
2022/05/28 10:38:11;;;;;;;7.68;2.65;;;;;;;17.66;46.14;97477.91;5010468;28;20042;-65
2022/05/28 10:40:54;;;;;;;4.00;2.30;;;;;;;17.75;45.41;97481.28;5011726;28;20052;-65
2022/05/28 10:43:37;;;;;;;6.65;2.60;;;;;;;17.88;45.05;97485.59;5011507;28;20138;-66
2022/05/28 10:46:15;;;;;;;5.05;2.20;;;;;;;17.89;46.06;97487.16;5011632;28;20086;-66
2022/05/28 10:49:05;;;;;;;3.13;2.10;;;;;;;17.87;45.40;97497.41;5011121;28;20116;-65
2022/05/28 10:51:40;;;;;;;;;;;;;;;17.53;46.77;97489.66;5012226;28;20077;-65
2022/05/28 10:54:18;;;;;;;5.45;2.83;;;;;;;17.55;46.74;97488.22;5011783;28;20031;-65
2022/05/28 10:56:55;;;;;;;20.02;8.68;;;;;;;17.64;46.90;97488.16;5011942;28;20049;-64
2022/05/28 10:59:32;;;;;;;2.78;2.25;;;;;;;17.63;46.51;97492.72;5011791;28;20054;-66
2022/05/28 11:02:13;;;;;;;4.43;2.47;;;;;;;17.53;45.85;97490.47;5010390;28;20042;-65
2022/05/28 11:04:57;;;;;;;6.68;2.50;;;;;;;17.41;45.61;97501.91;5011605;28;20074;-66
2022/05/28 11:07:44;;;;;;;4.45;2.20;;;;;;;17.57;45.31;97490.59;5011355;28;20550;-65
2022/05/28 11:10:25;;;;;;;3.80;1.75;;;;;;;17.56;43.78;97497.03;5011561;28;20470;-66
2022/05/28 11:13:15;;;;;;;5.50;3.05;;;;;;;17.24;44.20;97512.75;5026624;28;20077;-66
2022/05/28 11:15:44;;;;;;;11.45;2.80;;;;;;;16.45;47.35;97511.63;5026805;28;20476;-66
2022/05/28 11:18:34;;;;;;;6.50;2.75;;;;;;;15.51;51.49;97522.94;5011455;28;20437;-66
2022/05/28 11:21:16;;;;;;;4.78;3.13;;;;;;;14.13;58.82;97550.78;5009883;28;20107;-64
2022/05/28 11:24:02;;;;;;;7.40;3.33;;;;;;;12.94;66.35;97575.00;5010009;28;20074;-65
2022/05/28 11:27:02;;;;;;;10.15;3.80;;;;;;;11.82;75.82;97549.34;5026632;28;20454;-65
2022/05/28 11:29:37;;;;;;;;;;;;;;;11.58;77.58;97565.34;4975277;28;20104;-65
2022/05/28 11:32:19;;;;;;;6.03;3.58;;;;;;;11.42;78.28;97555.28;5011358;28;19928;-65
2022/05/28 11:34:48;;;;;;;13.27;3.85;;;;;;;11.48;79.77;97557.56;5009893;28;20531;-65
2022/05/28 11:37:28;;;;;;;7.43;3.72;;;;;;;11.48;76.92;97552.25;5011189;28;20399;-66
2022/05/28 11:39:58;;;;;;;7.00;3.42;;;;;;;11.52;77.16;97561.19;5011104;28;20515;-65
2022/05/28 11:42:34;;;;;;;6.90;3.65;;;;;;;11.52;73.46;97561.19;5026563;28;20511;-65
2022/05/28 11:45:03;;;;;;;7.18;3.38;;;;;;;11.48;72.23;97557.56;5011338;28;20034;-67
2022/05/28 11:47:32;;;;;;;7.03;3.30;;;;;;;11.53;71.00;97557.50;5011508;28;20041;-66